createdAt,value
2023-02-11T00:00:21.493Z,23.92
2023-02-11T00:02:48.263Z,23.45
2023-02-11T00:05:15.269Z,21.83
2023-02-11T00:07:41.931Z,23.30
2023-02-11T00:10:09.079Z,22.63
2023-02-11T00:12:36.734Z,24.13
2023-02-11T00:15:04.660Z,25.73
2023-02-11T00:17:32.943Z,24.60
2023-02-11T00:19:59.682Z,24.20
2023-02-11T00:22:26.416Z,25.63
2023-02-11T00:24:53.370Z,24.20
2023-02-11T00:27:20.083Z,22.60
2023-02-11T00:29:46.810Z,22.27
2023-02-11T00:32:13.502Z,24.63
2023-02-11T00:34:40.195Z,24.40
2023-02-11T00:37:07.114Z,24.88
2023-02-11T00:39:33.836Z,24.23
2023-02-11T00:42:03.328Z,22.65
2023-02-11T00:44:30.297Z,24.23
2023-02-11T00:46:56.960Z,23.90
2023-02-11T00:49:23.689Z,25.50
2023-02-11T00:51:50.382Z,22.90
2023-02-11T00:54:17.060Z,23.00
2023-02-11T00:56:43.747Z,25.67
2023-02-11T00:59:10.498Z,23.88
2023-02-11T01:01:37.266Z,26.52
2023-02-11T01:04:04.152Z,24.48
2023-02-11T01:06:30.922Z,24.63
2023-02-11T01:08:58.115Z,24.70
2023-02-11T01:11:24.922Z,23.92
2023-02-11T01:13:51.683Z,25.83
2023-02-11T01:16:19.226Z,24.23
2023-02-11T01:18:46.299Z,24.70
2023-02-11T01:21:13.099Z,24.63
2023-02-11T01:23:39.814Z,25.58
2023-02-11T01:26:06.748Z,24.92
2023-02-11T01:28:33.954Z,24.88
2023-02-11T01:31:02.467Z,25.95
2023-02-11T01:33:29.797Z,25.30
2023-02-11T01:36:01.573Z,25.45
2023-02-11T01:38:28.241Z,25.60
2023-02-11T01:40:57.817Z,24.52
2023-02-11T01:43:26.228Z,21.77
2023-02-11T01:46:20.381Z,23.75
2023-02-11T01:48:55.323Z,23.63
2023-02-11T01:51:29.381Z,24.52
2023-02-11T01:54:15.640Z,22.13
2023-02-11T01:57:05.018Z,22.20
2023-02-11T01:59:38.276Z,23.67
2023-02-11T02:02:10.630Z,23.73
2023-02-11T02:04:50.133Z,22.95
2023-02-11T02:07:43.013Z,22.88
2023-02-11T02:10:15.641Z,22.45
2023-02-11T02:12:42.469Z,24.20
2023-02-11T02:15:19.687Z,22.80
2023-02-11T02:18:05.184Z,21.98
2023-02-11T02:20:52.443Z,25.02
2023-02-11T02:23:28.517Z,24.67
2023-02-11T02:26:14.130Z,22.85
2023-02-11T02:29:19.234Z,25.38
2023-02-11T02:32:17.108Z,26.02
2023-02-11T02:35:02.383Z,24.45
2023-02-11T02:37:40.355Z,23.48
2023-02-11T02:40:12.727Z,24.75
2023-02-11T02:42:41.316Z,24.20
2023-02-11T02:45:10.839Z,25.42
2023-02-11T02:47:37.792Z,24.15
2023-02-11T02:50:07.450Z,26.17
2023-02-11T02:52:50.456Z,24.52
2023-02-11T02:55:32.018Z,24.30
2023-02-11T02:58:22.664Z,26.55
2023-02-11T03:01:09.655Z,26.85
2023-02-11T03:03:54.562Z,25.17
2023-02-11T03:06:32.239Z,24.13
2023-02-11T03:09:44.485Z,26.88
2023-02-11T03:12:13.530Z,24.65
2023-02-11T03:14:41.961Z,27.13
2023-02-11T03:17:10.217Z,28.52
2023-02-11T03:19:40.602Z,25.92
2023-02-11T03:22:27.047Z,26.63
2023-02-11T03:24:55.920Z,26.42
2023-02-11T03:27:31.653Z,26.50
2023-02-11T03:30:32.370Z,25.23
2023-02-11T03:33:07.174Z,25.75
2023-02-11T03:35:43.294Z,25.33
2023-02-11T03:38:17.735Z,25.85
2023-02-11T03:40:45.639Z,24.27
2023-02-11T03:43:22.729Z,25.02
2023-02-11T03:45:52.501Z,24.77
2023-02-11T03:48:36.190Z,23.88
2023-02-11T03:51:07.128Z,24.45
2023-02-11T03:53:34.755Z,25.55
2023-02-11T03:56:05.496Z,26.40
2023-02-11T03:58:32.200Z,24.95
2023-02-11T04:00:59.005Z,25.35
2023-02-11T04:03:25.692Z,25.40
2023-02-11T04:05:52.544Z,24.77
2023-02-11T04:08:19.356Z,24.45
2023-02-11T04:10:46.068Z,24.83
2023-02-11T04:13:12.765Z,25.83
2023-02-11T04:15:39.435Z,25.05
2023-02-11T04:18:06.213Z,25.48
2023-02-11T04:20:32.866Z,27.13
2023-02-11T04:22:59.543Z,24.63
2023-02-11T04:25:26.297Z,25.38
2023-02-11T04:27:53.030Z,23.77
2023-02-11T04:30:19.742Z,25.50
2023-02-11T04:32:47.430Z,25.60
2023-02-11T04:35:14.272Z,24.88
2023-02-11T04:37:40.939Z,23.25
2023-02-11T04:40:08.233Z,25.38
2023-02-11T04:42:34.889Z,25.10
2023-02-11T04:45:01.884Z,26.45
2023-02-11T04:47:28.551Z,24.95
2023-02-11T04:49:55.180Z,25.95
2023-02-11T04:52:21.832Z,24.73
2023-02-11T04:54:48.605Z,24.17
2023-02-11T04:57:15.331Z,24.92
2023-02-11T04:59:42.196Z,24.50
2023-02-11T05:02:08.956Z,24.15
2023-02-11T05:04:35.633Z,25.33
2023-02-11T05:07:02.312Z,26.35
2023-02-11T05:09:29.453Z,25.75
2023-02-11T05:11:57.025Z,25.48
2023-02-11T05:14:23.723Z,23.23
2023-02-11T05:16:50.403Z,24.42
2023-02-11T05:19:17.089Z,22.77
2023-02-11T05:21:56.688Z,24.42
2023-02-11T05:24:28.286Z,23.77
2023-02-11T05:26:54.987Z,24.98
2023-02-11T05:29:21.638Z,23.10
2023-02-11T05:31:48.766Z,22.88
2023-02-11T05:34:15.450Z,23.77
2023-02-11T05:36:42.103Z,23.98
2023-02-11T05:39:08.775Z,22.38
2023-02-11T05:41:35.450Z,21.75
2023-02-11T05:44:02.195Z,22.10
2023-02-11T05:46:28.936Z,21.88
2023-02-11T05:48:56.625Z,22.25
2023-02-11T05:51:25.275Z,21.10
2023-02-11T05:53:53.100Z,20.77
2023-02-11T05:56:19.808Z,20.65
2023-02-11T05:58:46.485Z,23.15
2023-02-11T06:01:13.176Z,20.75
2023-02-11T06:03:39.887Z,20.70
2023-02-11T06:06:11.471Z,22.58
2023-02-11T06:08:39.381Z,24.13
2023-02-11T06:11:06.244Z,21.58
2023-02-11T06:13:33.051Z,20.95
2023-02-11T06:16:01.254Z,20.88
2023-02-11T06:18:28.590Z,21.63
2023-02-11T06:20:55.486Z,20.45
2023-02-11T06:23:22.647Z,20.23
2023-02-11T06:25:50.052Z,21.17
2023-02-11T06:28:16.971Z,22.38
2023-02-11T06:30:43.706Z,20.80
2023-02-11T06:33:10.414Z,20.35
2023-02-11T06:35:40.073Z,20.73
2023-02-11T06:38:06.840Z,20.42
2023-02-11T06:40:33.557Z,18.98
2023-02-11T06:43:00.269Z,20.15
2023-02-11T06:45:27.077Z,21.52
2023-02-11T06:47:53.721Z,20.77
2023-02-11T06:50:20.582Z,18.92
2023-02-11T06:52:47.280Z,21.80
2023-02-11T06:55:14.065Z,21.60
2023-02-11T06:57:40.900Z,19.20
2023-02-11T07:00:08.334Z,22.45
2023-02-11T07:02:36.114Z,20.88
2023-02-11T07:05:02.905Z,22.38
2023-02-11T07:07:30.819Z,21.30
2023-02-11T07:09:59.165Z,20.20
2023-02-11T07:12:25.893Z,21.08
2023-02-11T07:14:52.930Z,20.73
2023-02-11T07:17:19.597Z,20.70
2023-02-11T07:19:46.348Z,20.48
2023-02-11T07:22:13.020Z,20.23
2023-02-11T07:24:39.720Z,20.83
2023-02-11T07:27:06.652Z,19.73
2023-02-11T07:29:33.394Z,21.77
2023-02-11T07:32:00.130Z,20.25
2023-02-11T07:34:26.902Z,20.10
2023-02-11T07:36:53.666Z,21.85
2023-02-11T07:39:21.894Z,20.08
2023-02-11T07:41:49.262Z,22.63
2023-02-11T07:44:16.603Z,20.65
2023-02-11T07:46:45.176Z,21.92
2023-02-11T07:49:12.517Z,21.42
2023-02-11T07:51:39.351Z,21.85
2023-02-11T07:54:06.086Z,21.50
2023-02-11T07:56:33.547Z,22.08
2023-02-11T07:59:03.387Z,20.67
2023-02-11T08:01:30.716Z,19.85
2023-02-11T08:03:59.432Z,21.00
2023-02-11T08:06:28.843Z,21.30
2023-02-11T08:08:55.726Z,20.63
2023-02-11T08:11:25.089Z,21.08
2023-02-11T08:14:03.415Z,20.70
2023-02-11T08:16:32.999Z,21.55
2023-02-11T08:19:02.974Z,20.33
2023-02-11T08:21:29.909Z,22.40
2023-02-11T08:23:56.981Z,21.77
2023-02-11T08:26:26.056Z,22.92
2023-02-11T08:28:54.864Z,22.48
2023-02-11T08:31:30.762Z,22.30
2023-02-11T08:34:02.214Z,24.10
2023-02-11T08:36:31.593Z,23.35
2023-02-11T08:39:15.904Z,22.73
2023-02-11T08:41:45.956Z,23.05
2023-02-11T08:44:13.230Z,21.90
2023-02-11T08:46:39.993Z,21.98
2023-02-11T08:49:06.708Z,22.35
2023-02-11T08:51:33.434Z,22.48
2023-02-11T08:54:00.760Z,20.65
2023-02-11T08:56:28.346Z,21.95
2023-02-11T08:58:55.318Z,21.48
2023-02-11T09:01:24.691Z,21.92
2023-02-11T09:03:51.914Z,22.88
2023-02-11T09:06:19.643Z,22.45
2023-02-11T09:08:51.690Z,24.67
2023-02-11T09:13:46.616Z,22.77
2023-02-11T09:16:21.937Z,21.85
2023-02-11T09:18:48.761Z,21.42
2023-02-11T09:21:16.700Z,21.58
2023-02-11T09:23:44.761Z,23.75
2023-02-11T09:26:16.051Z,22.20
2023-02-11T09:28:42.991Z,22.17
2023-02-11T09:31:13.956Z,23.48
2023-02-11T09:33:47.616Z,23.42
2023-02-11T09:36:20.482Z,22.95
2023-02-11T09:38:47.683Z,23.80
2023-02-11T09:41:25.401Z,23.73
2023-02-11T09:43:55.102Z,23.02
2023-02-11T09:46:23.046Z,24.50
2023-02-11T09:48:52.983Z,23.15
2023-02-11T09:51:40.557Z,25.23
2023-02-11T09:54:34.105Z,22.63
2023-02-11T09:57:00.999Z,22.38
2023-02-11T09:59:27.795Z,23.70
2023-02-11T10:02:20.133Z,23.73
2023-02-11T10:05:13.321Z,23.27
2023-02-11T10:07:59.154Z,23.98
2023-02-11T10:11:22.591Z,24.50
2023-02-11T10:14:01.856Z,23.83
2023-02-11T10:19:24.969Z,24.95
2023-02-11T10:22:27.533Z,24.80
2023-02-11T10:27:32.745Z,23.67
2023-02-11T10:30:09.694Z,25.63
2023-02-11T10:32:48.491Z,24.00
2023-02-11T10:35:24.534Z,24.35
2023-02-11T10:37:51.212Z,24.50
2023-02-11T10:40:25.335Z,24.15
2023-02-11T10:43:01.135Z,25.10
2023-02-11T10:45:52.600Z,26.02
2023-02-11T10:48:39.085Z,25.97
2023-02-11T10:51:14.756Z,24.75
2023-02-11T10:53:42.019Z,24.90
2023-02-11T10:56:12.056Z,24.48
2023-02-11T10:58:45.174Z,23.77
2023-02-11T11:01:23.983Z,23.23
2023-02-11T11:03:52.648Z,23.95
2023-02-11T11:06:31.514Z,25.63
2023-02-11T11:08:58.808Z,24.17
2023-02-11T11:11:27.114Z,25.33
2023-02-11T11:13:57.915Z,23.25
2023-02-11T11:16:25.653Z,22.63
2023-02-11T11:19:13.877Z,22.98
2023-02-11T11:21:55.152Z,26.23
2023-02-11T11:24:40.003Z,22.23
2023-02-11T11:27:06.967Z,23.92
2023-02-11T11:29:45.794Z,24.05
2023-02-11T11:32:20.791Z,23.23
2023-02-11T11:34:56.509Z,23.08
2023-02-11T11:37:28.630Z,22.58
2023-02-11T11:42:40.424Z,21.52
2023-02-11T11:45:16.156Z,22.08
2023-02-11T11:47:54.202Z,20.02
2023-02-11T11:50:30.602Z,20.95
2023-02-11T11:53:01.728Z,21.83
2023-02-11T11:55:39.091Z,21.13
2023-02-11T11:58:10.545Z,19.30
2023-02-11T12:01:05.544Z,20.70
2023-02-11T12:03:58.588Z,20.00
2023-02-11T12:06:39.876Z,21.08
2023-02-11T12:09:34.361Z,21.17
2023-02-11T12:12:32.505Z,18.80
2023-02-11T12:15:26.297Z,20.67
2023-02-11T12:18:22.142Z,19.13
2023-02-11T12:21:20.873Z,18.45
2023-02-11T12:24:05.397Z,20.23
2023-02-11T12:26:43.263Z,19.88
2023-02-11T12:29:17.786Z,19.48
2023-02-11T12:32:11.041Z,19.85
2023-02-11T12:35:05.884Z,18.67
2023-02-11T12:37:48.950Z,19.13
2023-02-11T12:40:30.718Z,19.00
2023-02-11T12:43:18.230Z,19.65
2023-02-11T12:46:07.001Z,18.95
2023-02-11T12:49:10.759Z,20.20
2023-02-11T12:51:49.329Z,19.90
2023-02-11T12:54:39.150Z,19.80
2023-02-11T12:57:17.368Z,20.02
2023-02-11T13:00:02.221Z,19.35
2023-02-11T13:02:45.758Z,20.95
2023-02-11T13:05:25.457Z,19.58
2023-02-11T13:07:56.879Z,20.25
2023-02-11T13:10:37.652Z,21.17
2023-02-11T13:13:16.283Z,20.80
2023-02-11T13:15:46.792Z,22.25
2023-02-11T13:18:24.045Z,19.60
2023-02-11T13:21:13.069Z,22.00
2023-02-11T13:23:51.906Z,22.23
2023-02-11T13:26:52.311Z,21.65
2023-02-11T13:29:43.908Z,19.95
2023-02-11T13:32:15.703Z,20.50
2023-02-11T13:34:42.356Z,23.00
2023-02-11T13:37:27.527Z,20.50
2023-02-11T13:40:06.552Z,21.70
2023-02-11T13:42:46.431Z,20.95
2023-02-11T13:45:36.061Z,22.70
2023-02-11T13:48:06.153Z,21.55
2023-02-11T13:50:39.534Z,20.98
2023-02-11T13:53:08.730Z,21.48
2023-02-11T13:55:35.863Z,20.80
2023-02-11T13:58:08.326Z,21.27
2023-02-11T14:00:35.013Z,21.40
2023-02-11T14:03:29.234Z,21.25
2023-02-11T14:06:40.332Z,20.58
2023-02-11T14:09:09.843Z,21.42
2023-02-11T14:11:47.372Z,19.33
2023-02-11T14:14:33.390Z,23.25
2023-02-11T14:17:00.252Z,20.00
2023-02-11T14:19:43.516Z,20.55
2023-02-11T14:22:17.488Z,19.17
2023-02-11T14:24:51.513Z,20.77
2023-02-11T14:27:34.988Z,19.25
2023-02-11T14:30:24.242Z,21.25
2023-02-11T14:32:58.083Z,19.33
2023-02-11T14:35:44.313Z,22.63
2023-02-11T14:38:27.065Z,21.23
2023-02-11T14:41:16.057Z,19.65
2023-02-11T14:43:47.362Z,20.48
2023-02-11T14:46:17.560Z,20.80
2023-02-11T14:48:50.247Z,20.63
2023-02-11T14:51:23.398Z,22.00
2023-02-11T14:53:53.011Z,20.98
2023-02-11T14:56:26.438Z,21.60
2023-02-11T14:58:55.810Z,21.60
2023-02-11T15:01:35.710Z,20.20
2023-02-11T15:04:05.656Z,20.27
2023-02-11T15:06:37.540Z,21.45
2023-02-11T15:09:28.011Z,19.27
2023-02-11T15:11:56.385Z,19.50
2023-02-11T15:14:32.659Z,20.13
2023-02-11T15:17:09.324Z,19.55
2023-02-11T15:19:44.611Z,20.67
2023-02-11T15:22:21.876Z,20.67
2023-02-11T15:25:11.751Z,21.55
2023-02-11T15:27:44.477Z,20.83
2023-02-11T15:30:24.898Z,21.23
2023-02-11T15:33:02.722Z,20.25
2023-02-11T15:35:40.834Z,21.55
2023-02-11T15:38:09.966Z,22.50
2023-02-11T15:40:37.737Z,21.10
2023-02-11T15:43:07.611Z,19.95
2023-02-11T15:45:53.424Z,22.88
2023-02-11T15:48:26.519Z,20.60
2023-02-11T15:51:01.048Z,21.13
2023-02-11T15:53:42.207Z,20.77
2023-02-11T15:56:27.147Z,19.95
2023-02-11T15:58:57.260Z,21.23
2023-02-11T16:01:36.593Z,21.45
2023-02-11T16:04:05.470Z,19.50
2023-02-11T16:06:42.707Z,20.90
2023-02-11T16:09:10.954Z,21.77
2023-02-11T16:11:56.117Z,21.50
2023-02-11T16:14:36.818Z,21.08
2023-02-11T16:17:11.138Z,23.45
2023-02-11T16:19:47.393Z,19.70
2023-02-11T16:22:18.870Z,20.83
2023-02-11T16:24:49.288Z,21.55
2023-02-11T16:27:29.683Z,20.92
2023-02-11T16:29:57.501Z,19.98
2023-02-11T16:32:27.406Z,21.20
2023-02-11T16:34:57.809Z,21.27
2023-02-11T16:37:25.376Z,22.20
2023-02-11T16:40:00.663Z,22.42
2023-02-11T16:42:27.338Z,20.85
2023-02-11T16:44:54.992Z,19.13
2023-02-11T16:47:27.732Z,20.60
2023-02-11T16:49:56.033Z,19.95
2023-02-11T16:52:23.128Z,19.05
2023-02-11T16:54:50.006Z,19.63
2023-02-11T16:57:19.164Z,20.27
2023-02-11T16:59:46.119Z,19.50
2023-02-11T17:02:23.623Z,18.50
2023-02-11T17:04:52.619Z,19.88
2023-02-11T17:07:19.434Z,20.58
2023-02-11T17:09:46.080Z,20.27
2023-02-11T17:12:12.730Z,19.75
2023-02-11T17:14:39.409Z,19.48
2023-02-11T17:17:06.096Z,21.50
2023-02-11T17:19:32.790Z,18.90
2023-02-11T17:21:59.457Z,21.35
2023-02-11T17:24:26.133Z,21.48
2023-02-11T17:26:52.833Z,20.30
2023-02-11T17:29:22.888Z,20.33
2023-02-11T17:31:51.719Z,23.02
2023-02-11T17:34:19.763Z,22.88
2023-02-11T17:36:46.530Z,22.00
2023-02-11T17:39:13.483Z,23.30
2023-02-11T17:41:40.925Z,20.48
2023-02-11T17:44:10.698Z,20.20
2023-02-11T17:46:37.352Z,21.63
2023-02-11T17:49:04.573Z,21.40
2023-02-11T17:51:34.390Z,20.17
2023-02-11T17:54:04.406Z,20.88
2023-02-11T17:56:36.154Z,20.92
2023-02-11T17:59:03.979Z,19.05
2023-02-11T18:01:32.343Z,19.52
2023-02-11T18:03:59.688Z,20.40
2023-02-11T18:06:26.379Z,20.85
2023-02-11T18:08:53.807Z,19.65
2023-02-11T18:11:25.101Z,20.70
2023-02-11T18:13:54.421Z,20.52
2023-02-11T18:16:22.855Z,20.58
2023-02-11T18:18:50.275Z,19.88
2023-02-11T18:21:19.460Z,20.17
2023-02-11T18:23:46.683Z,22.00
2023-02-11T18:26:14.857Z,20.02
2023-02-11T18:28:44.532Z,20.45
2023-02-11T18:31:12.675Z,22.45
2023-02-11T18:33:40.932Z,21.25
2023-02-11T18:36:13.126Z,20.85
2023-02-11T18:38:40.782Z,20.55
2023-02-11T18:41:07.679Z,21.02
2023-02-11T18:43:35.191Z,21.85
2023-02-11T18:46:06.451Z,19.10
2023-02-11T18:48:33.277Z,19.48
2023-02-11T18:50:59.960Z,18.65
2023-02-11T18:53:26.671Z,19.27
2023-02-11T18:55:54.199Z,17.95
2023-02-11T18:58:21.320Z,18.38
2023-02-11T19:00:48.864Z,22.38
2023-02-11T19:03:15.874Z,20.95
2023-02-11T19:05:48.077Z,22.80
2023-02-11T19:08:15.884Z,20.25
2023-02-11T19:10:45.045Z,18.65
2023-02-11T19:13:12.869Z,19.20
2023-02-11T19:15:46.659Z,18.90
2023-02-11T19:18:15.827Z,19.05
2023-02-11T19:20:43.757Z,20.08
2023-02-11T19:23:11.299Z,19.63
2023-02-11T19:25:44.551Z,19.58
2023-02-11T19:28:11.624Z,19.50
2023-02-11T19:30:38.680Z,19.15
2023-02-11T19:33:05.593Z,18.27
2023-02-11T19:35:35.632Z,20.20
2023-02-11T19:38:05.990Z,18.45
2023-02-11T19:40:32.875Z,19.15
2023-02-11T19:42:59.971Z,18.85
2023-02-11T19:45:27.025Z,19.55
2023-02-11T19:47:56.709Z,18.98
2023-02-11T19:50:23.540Z,19.20
2023-02-11T19:52:50.438Z,18.50
2023-02-11T19:55:17.154Z,18.20
2023-02-11T19:57:43.931Z,18.65
2023-02-11T20:00:11.313Z,18.15
2023-02-11T20:02:41.705Z,19.70
2023-02-11T20:05:09.295Z,19.58
2023-02-11T20:07:35.990Z,19.33
2023-02-11T20:10:02.689Z,18.23
2023-02-11T20:12:29.573Z,17.30
2023-02-11T20:14:56.265Z,18.05
2023-02-11T20:17:22.901Z,17.63
2023-02-11T20:19:49.780Z,18.73
2023-02-11T20:22:16.454Z,19.10
2023-02-11T20:24:43.154Z,16.98
2023-02-11T20:27:11.491Z,18.95
2023-02-11T20:29:38.934Z,16.65
2023-02-11T20:32:06.691Z,17.70
2023-02-11T20:34:35.054Z,16.83
2023-02-11T20:37:02.912Z,17.85
2023-02-11T20:39:29.622Z,16.75
2023-02-11T20:41:57.489Z,18.23
2023-02-11T20:44:25.040Z,17.52
2023-02-11T20:46:53.885Z,17.92
2023-02-11T20:49:22.994Z,17.38
2023-02-11T20:51:49.971Z,17.52
2023-02-11T20:54:18.522Z,17.58
2023-02-11T20:56:48.128Z,16.50
2023-02-11T20:59:16.331Z,16.65
2023-02-11T21:01:45.557Z,17.15
2023-02-11T21:04:18.800Z,17.05
2023-02-11T21:06:48.748Z,16.35
2023-02-11T21:09:19.544Z,17.48
2023-02-11T21:11:46.778Z,16.00
2023-02-11T21:14:13.770Z,16.55
2023-02-11T21:16:41.091Z,18.13
2023-02-11T21:19:08.154Z,16.75
2023-02-11T21:21:36.207Z,15.35
2023-02-11T21:24:03.444Z,17.92
2023-02-11T21:26:30.265Z,16.48
2023-02-11T21:28:56.980Z,16.73
2023-02-11T21:31:26.279Z,16.40
2023-02-11T21:33:55.023Z,15.18
2023-02-11T21:36:23.099Z,16.52
2023-02-11T21:38:50.107Z,16.70
2023-02-11T21:41:18.338Z,16.27
2023-02-11T21:43:45.214Z,16.33
2023-02-11T21:46:14.045Z,15.23
2023-02-11T21:48:40.938Z,17.40
2023-02-11T21:51:11.570Z,17.38
2023-02-11T21:53:38.641Z,15.75
2023-02-11T21:56:08.021Z,15.63
2023-02-11T21:58:35.209Z,15.73
2023-02-11T22:01:02.330Z,14.23
2023-02-11T22:03:29.104Z,14.05
2023-02-11T22:05:56.209Z,15.00
2023-02-11T22:08:23.016Z,14.02
2023-02-11T22:10:49.710Z,13.23
2023-02-11T22:13:16.407Z,14.27
2023-02-11T22:15:43.067Z,12.05
2023-02-11T22:18:09.702Z,11.98
2023-02-11T22:20:36.529Z,12.20
2023-02-11T22:23:03.388Z,11.65
2023-02-11T22:25:30.172Z,12.30
2023-02-11T22:27:56.932Z,12.88
2023-02-11T22:30:23.621Z,11.85
2023-02-11T22:32:50.277Z,12.48
2023-02-11T22:35:17.090Z,12.02
2023-02-11T22:37:43.764Z,11.90
2023-02-11T22:40:10.997Z,12.98
2023-02-11T22:42:37.680Z,10.98
2023-02-11T22:45:04.524Z,10.85
2023-02-11T22:47:31.166Z,10.43
2023-02-11T22:49:57.858Z,9.50
2023-02-11T22:52:24.587Z,10.32
2023-02-11T22:54:52.105Z,10.00
2023-02-11T22:57:18.798Z,9.23
2023-02-11T22:59:45.788Z,8.80
2023-02-11T23:02:12.615Z,8.82
2023-02-11T23:04:39.456Z,8.18
2023-02-11T23:07:06.134Z,8.93
2023-02-11T23:09:32.819Z,9.02
2023-02-11T23:11:59.453Z,8.00
2023-02-11T23:14:26.476Z,8.63
2023-02-11T23:16:53.193Z,8.43
2023-02-11T23:19:19.984Z,8.68
2023-02-11T23:21:50.267Z,9.10
2023-02-11T23:24:16.953Z,7.70
2023-02-11T23:26:44.425Z,8.55
2023-02-11T23:29:11.981Z,8.15
2023-02-11T23:31:41.114Z,8.80
2023-02-11T23:34:09.100Z,8.32
2023-02-11T23:36:36.310Z,7.65
2023-02-11T23:39:03.984Z,7.22
2023-02-11T23:41:30.775Z,7.65
2023-02-11T23:43:58.280Z,7.28
2023-02-11T23:46:28.274Z,7.18
2023-02-11T23:48:55.130Z,6.53
2023-02-11T23:51:22.777Z,7.10
2023-02-11T23:53:50.462Z,6.65
2023-02-11T23:56:22.853Z,6.57
2023-02-11T23:58:50.806Z,6.95
